Time;durP1;ratioP1;P1;durP2;ratioP2;P2;SDS_P1;SDS_P2;PMS_P1;PMS_P2;Temp;Humidity;BMP_temperature;BMP_pressure;BME280_temperature;BME280_humidity;BME280_pressure;Samples;Min_cycle;Max_cycle;Signal;HPM_P1;HPM_P2
2021/08/20 00:00:08;;;;;;;10.63;6.20;;;19.40;84.20;;;;;;5034318;28;20025;-66
2021/08/20 00:02:35;;;;;;;8.70;5.55;;;19.40;84.20;;;;;;5025590;28;20402;-67
2021/08/20 00:05:00;;;;;;;10.80;6.28;;;19.40;84.20;;;;;;5024507;28;20033;-66
2021/08/20 00:07:26;;;;;;;10.63;6.47;;;19.30;84.20;;;;;;5033250;28;20048;-66
2021/08/20 00:09:53;;;;;;;9.45;6.13;;;19.30;84.20;;;;;;5044167;28;20721;-67
2021/08/20 00:12:19;;;;;;;10.10;6.22;;;19.40;84.30;;;;;;5037413;28;20033;-65
2021/08/20 00:14:44;;;;;;;9.35;5.97;;;19.30;84.20;;;;;;5025432;28;20040;-65
2021/08/20 00:17:10;;;;;;;10.45;7.10;;;19.40;84.30;;;;;;5026054;28;20147;-67
2021/08/20 00:19:36;;;;;;;10.93;7.03;;;19.30;84.40;;;;;;5025579;28;20025;-66
2021/08/20 00:22:04;;;;;;;10.02;7.10;;;19.30;84.30;;;;;;5027982;28;20021;-65
2021/08/20 00:24:30;;;;;;;10.10;6.15;;;19.30;84.30;;;;;;5025985;28;20041;-66
2021/08/20 00:26:55;;;;;;;9.38;6.68;;;19.30;84.30;;;;;;5025373;28;20033;-65
2021/08/20 00:29:22;;;;;;;11.60;7.18;;;19.30;84.40;;;;;;5022151;28;20065;-66
2021/08/20 00:31:48;;;;;;;9.43;6.32;;;19.30;84.40;;;;;;5028462;28;20018;-67
2021/08/20 00:34:13;;;;;;;10.25;6.65;;;19.30;84.50;;;;;;5024184;28;20036;-66
2021/08/20 00:36:39;;;;;;;9.63;6.18;;;19.30;84.50;;;;;;5034550;28;20029;-67
2021/08/20 00:39:04;;;;;;;9.65;5.95;;;19.30;84.50;;;;;;5045333;28;20032;-66
2021/08/20 00:41:31;;;;;;;10.68;6.90;;;19.30;84.50;;;;;;5045002;28;20079;-65
2021/08/20 00:43:57;;;;;;;10.38;6.72;;;19.30;84.80;;;;;;5045210;28;20079;-66
2021/08/20 00:46:23;;;;;;;10.80;6.78;;;19.30;84.40;;;;;;5045166;28;20025;-66
2021/08/20 00:48:48;;;;;;;11.02;7.13;;;19.30;84.40;;;;;;5034685;28;20491;-66
2021/08/20 00:51:19;;;;;;;10.43;6.80;;;19.30;84.40;;;;;;5023823;28;20068;-66
2021/08/20 00:53:46;;;;;;;11.60;6.43;;;19.30;84.40;;;;;;5024300;28;20053;-66
2021/08/20 00:56:11;;;;;;;10.27;6.68;;;19.30;84.90;;;;;;5025135;28;20292;-66
2021/08/20 00:58:37;;;;;;;9.50;6.35;;;19.20;84.40;;;;;;5025374;28;20033;-66
2021/08/20 01:01:03;;;;;;;10.85;6.30;;;19.20;84.50;;;;;;5022252;28;20025;-65
2021/08/20 01:03:30;;;;;;;9.98;6.57;;;19.30;84.50;;;;;;5040007;28;20021;-66
2021/08/20 01:05:56;;;;;;;10.23;6.65;;;19.30;84.40;;;;;;5045413;28;20029;-66
2021/08/20 01:08:23;;;;;;;9.25;6.20;;;19.20;84.40;;;;;;5047121;28;20398;-66
2021/08/20 01:10:52;;;;;;;10.25;6.85;;;19.20;84.60;;;;;;5048847;28;20481;-66
2021/08/20 01:13:18;;;;;;;9.55;6.50;;;19.20;84.70;;;;;;5034153;28;20043;-65
2021/08/20 01:15:45;;;;;;;10.15;7.10;;;19.20;84.60;;;;;;5029205;28;20022;-66
2021/08/20 01:18:11;;;;;;;9.00;6.53;;;19.20;84.60;;;;;;5040394;28;20036;-66
2021/08/20 01:20:37;;;;;;;10.85;6.50;;;19.20;84.60;;;;;;5049156;28;20389;-68
2021/08/20 01:23:06;;;;;;;12.05;6.93;;;19.20;84.50;;;;;;5038583;28;20030;-66
2021/08/20 01:25:34;;;;;;;9.48;6.63;;;19.20;84.50;;;;;;5035947;28;20487;-67
2021/08/20 01:28:09;;;;;;;10.30;6.35;;;19.20;84.50;;;;;;5027874;28;20124;-66
2021/08/20 01:30:35;;;;;;;9.13;6.38;;;19.20;84.50;;;;;;5043423;28;20128;-66
2021/08/20 01:33:01;;;;;;;10.00;7.07;;;19.20;84.50;;;;;;5039739;28;20059;-66
2021/08/20 01:35:27;;;;;;;9.23;6.38;;;19.20;84.50;;;;;;5032008;28;20112;-67
2021/08/20 01:37:53;;;;;;;9.57;6.28;;;19.20;84.60;;;;;;5047770;28;20028;-66
2021/08/20 01:40:19;;;;;;;8.27;5.28;;;19.20;84.60;;;;;;5041976;28;20513;-67
2021/08/20 01:42:44;;;;;;;11.00;7.05;;;19.20;84.60;;;;;;5028681;28;20025;-67
2021/08/20 01:45:10;;;;;;;8.93;6.10;;;19.20;84.60;;;;;;5031990;28;20036;-66
2021/08/20 01:47:36;;;;;;;9.52;6.22;;;19.20;84.60;;;;;;5046743;28;20044;-67
2021/08/20 01:50:04;;;;;;;9.70;5.45;;;19.20;84.60;;;;;;5044262;28;20029;-67
2021/08/20 01:52:29;;;;;;;10.88;6.60;;;19.20;84.70;;;;;;5028472;28;20033;-67
2021/08/20 01:54:55;;;;;;;8.70;5.57;;;19.20;84.70;;;;;;5046741;28;20025;-66
2021/08/20 01:57:20;;;;;;;9.13;6.07;;;19.20;84.70;;;;;;5047380;28;20068;-67
2021/08/20 01:59:46;;;;;;;7.65;5.18;;;19.20;84.70;;;;;;5037512;28;20135;-65
2021/08/20 02:02:11;;;;;;;8.75;5.13;;;19.20;84.70;;;;;;5048216;28;20048;-66
2021/08/20 02:04:37;;;;;;;7.55;5.28;;;19.20;84.80;;;;;;5031510;28;20040;-66
2021/08/20 02:07:03;;;;;;;9.75;5.75;;;19.20;84.80;;;;;;5028372;28;20056;-67
2021/08/20 02:09:28;;;;;;;9.48;5.72;;;19.20;84.80;;;;;;5042402;28;20033;-65
2021/08/20 02:11:54;;;;;;;9.60;5.30;;;19.20;84.80;;;;;;5045713;28;20036;-67
2021/08/20 02:14:19;;;;;;;9.70;6.20;;;19.20;84.80;;;;;;5046416;28;20063;-67
2021/08/20 02:16:45;;;;;;;8.07;5.20;;;19.20;84.80;;;;;;5046683;28;20054;-66
2021/08/20 02:19:10;;;;;;;7.95;5.45;;;19.20;84.80;;;;;;5026521;28;20034;-66
2021/08/20 02:21:36;;;;;;;8.10;4.97;;;19.20;84.90;;;;;;5027421;28;20045;-67
2021/08/20 02:24:02;;;;;;;9.60;5.60;;;19.20;84.80;;;;;;5045531;28;20379;-66
2021/08/20 02:26:27;;;;;;;8.68;5.65;;;19.10;84.80;;;;;;5026534;28;20087;-66
2021/08/20 02:28:53;;;;;;;7.13;4.68;;;19.20;84.90;;;;;;5044329;28;20174;-66
2021/08/20 02:31:18;;;;;;;8.27;5.10;;;19.20;84.90;;;;;;5039049;28;20025;-67
2021/08/20 02:33:45;;;;;;;9.43;5.75;;;19.10;84.80;;;;;;5046684;28;20433;-66
2021/08/20 02:36:12;;;;;;;8.05;5.57;;;19.20;84.90;;;;;;5036142;28;20029;-66
2021/08/20 02:38:38;;;;;;;7.63;4.68;;;19.10;84.90;;;;;;5045945;28;20028;-66
2021/08/20 02:41:03;;;;;;;7.45;5.18;;;19.10;84.90;;;;;;5045059;28;20057;-66
2021/08/20 02:43:29;;;;;;;8.32;4.80;;;19.20;84.90;;;;;;5047497;28;20029;-67
2021/08/20 02:45:56;;;;;;;7.43;4.70;;;19.10;84.90;;;;;;5046636;28;20029;-66
2021/08/20 02:48:22;;;;;;;7.78;5.15;;;19.10;84.90;;;;;;5047541;28;20140;-66
2021/08/20 02:50:48;;;;;;;7.82;4.65;;;19.10;84.90;;;;;;5031575;28;20034;-66
2021/08/20 02:53:14;;;;;;;7.85;4.60;;;19.10;84.90;;;;;;5027584;28;20026;-68
2021/08/20 02:55:40;;;;;;;8.57;5.10;;;19.10;84.90;;;;;;5039019;28;21002;-66
2021/08/20 02:58:06;;;;;;;7.75;4.72;;;19.10;85.00;;;;;;5047451;28;20033;-66
2021/08/20 03:00:31;;;;;;;7.63;5.07;;;19.10;85.00;;;;;;5031811;28;20110;-67
2021/08/20 03:02:57;;;;;;;9.57;5.10;;;19.10;85.00;;;;;;5026863;28;20041;-67
2021/08/20 03:05:23;;;;;;;7.82;4.75;;;19.10;85.10;;;;;;5039908;28;20029;-67
2021/08/20 03:07:48;;;;;;;7.72;4.78;;;19.10;85.10;;;;;;5045804;28;20036;-67
2021/08/20 03:10:15;;;;;;;8.88;5.20;;;19.10;85.10;;;;;;5045953;28;20029;-66
2021/08/20 03:12:40;;;;;;;7.68;4.78;;;19.10;85.00;;;;;;5045531;28;20033;-66
2021/08/20 03:15:07;;;;;;;7.10;4.60;;;19.10;85.10;;;;;;5036403;28;20045;-67
2021/08/20 03:17:33;;;;;;;7.18;4.57;;;19.10;85.10;;;;;;5027059;28;20034;-67
2021/08/20 03:19:58;;;;;;;7.03;4.35;;;19.10;85.10;;;;;;5027755;28;20029;-68
2021/08/20 03:22:24;;;;;;;7.35;4.43;;;19.10;85.20;;;;;;5026688;28;20029;-67
2021/08/20 03:24:49;;;;;;;7.57;4.45;;;19.10;85.20;;;;;;5029420;28;20040;-66
2021/08/20 03:27:15;;;;;;;8.40;5.25;;;19.10;85.20;;;;;;5026772;28;20024;-66
2021/08/20 03:29:41;;;;;;;10.15;5.40;;;19.10;85.30;;;;;;5032491;28;20021;-66
2021/08/20 03:32:07;;;;;;;7.20;4.68;;;19.10;85.20;;;;;;5044750;28;20025;-66
2021/08/20 03:34:32;;;;;;;8.27;4.97;;;19.10;85.30;;;;;;5039808;28;20026;-66
2021/08/20 03:36:58;;;;;;;7.50;4.88;;;19.10;85.30;;;;;;5026246;28;20044;-67
2021/08/20 03:39:23;;;;;;;7.28;4.30;;;19.10;85.30;;;;;;5032040;28;20025;-66
2021/08/20 03:41:49;;;;;;;7.32;4.32;;;19.10;85.30;;;;;;5045765;28;20024;-66
2021/08/20 03:44:15;;;;;;;8.18;5.03;;;19.10;85.30;;;;;;5042223;28;20613;-66
2021/08/20 03:46:40;;;;;;;7.47;4.25;;;19.10;85.30;;;;;;5026663;28;20136;-68
2021/08/20 03:49:06;;;;;;;8.52;5.07;;;19.10;85.30;;;;;;5028503;28;20029;-67
2021/08/20 03:51:32;;;;;;;8.30;4.25;;;19.10;85.30;;;;;;5045495;28;20647;-66
2021/08/20 03:53:58;;;;;;;7.72;4.57;;;19.00;85.30;;;;;;5044507;28;20029;-66
2021/08/20 03:56:23;;;;;;;7.20;4.78;;;19.00;85.30;;;;;;5046331;28;20528;-66
2021/08/20 03:58:49;;;;;;;7.72;4.60;;;19.10;85.40;;;;;;5032783;28;20018;-67
2021/08/20 04:01:14;;;;;;;7.40;4.68;;;19.00;85.40;;;;;;5035302;28;20071;-66
2021/08/20 04:03:40;;;;;;;7.53;4.90;;;19.00;85.50;;;;;;5035810;28;20083;-65
2021/08/20 04:06:10;;;;;;;7.47;4.65;;;19.00;85.60;;;;;;5045136;28;20056;-66
2021/08/20 04:08:36;;;;;;;7.60;4.75;;;19.00;85.60;;;;;;5034341;28;20065;-66
2021/08/20 04:11:02;;;;;;;7.32;4.72;;;19.00;85.60;;;;;;5033340;28;21124;-66
2021/08/20 04:13:28;;;;;;;13.55;5.22;;;19.10;85.50;;;;;;5033333;28;20037;-66
2021/08/20 04:15:54;;;;;;;7.57;4.70;;;19.00;85.40;;;;;;5032357;28;20045;-67
2021/08/20 04:18:20;;;;;;;6.88;4.22;;;19.00;85.40;;;;;;5024541;28;20552;-67
2021/08/20 04:20:45;;;;;;;7.53;4.18;;;19.00;85.60;;;;;;5026216;28;20777;-67
2021/08/20 04:23:12;;;;;;;8.10;4.18;;;19.10;85.50;;;;;;5029234;28;20044;-66
2021/08/20 04:25:37;;;;;;;7.75;4.60;;;19.00;85.60;;;;;;5028773;28;20120;-68
2021/08/20 04:28:03;;;;;;;8.10;4.35;;;19.00;86.50;;;;;;5043554;28;20140;-67
2021/08/20 04:30:29;;;;;;;7.53;4.43;;;19.10;86.00;;;;;;5033966;28;20047;-68
2021/08/20 04:32:59;;;;;;;8.23;4.45;;;19.10;86.10;;;;;;5028496;28;20022;-66
2021/08/20 04:35:26;;;;;;;12.38;4.50;;;19.10;86.20;;;;;;5031143;28;20029;-67
2021/08/20 04:37:52;;;;;;;7.28;4.53;;;19.10;86.20;;;;;;5035287;28;20036;-68
2021/08/20 04:40:18;;;;;;;10.02;4.55;;;19.10;87.00;;;;;;5041715;28;20036;-66
2021/08/20 04:42:43;;;;;;;7.40;4.88;;;19.10;87.50;;;;;;5051545;28;20526;-65
2021/08/20 04:45:10;;;;;;;8.30;5.22;;;19.10;87.30;;;;;;5037615;28;20053;-69
2021/08/20 04:47:35;;;;;;;9.88;4.95;;;19.10;87.70;;;;;;5036099;28;20025;-67
2021/08/20 04:50:03;;;;;;;8.95;5.95;;;19.20;88.10;;;;;;5037173;28;20028;-66
2021/08/20 04:52:29;;;;;;;12.35;7.72;;;19.10;88.60;;;;;;5034999;28;20036;-67
2021/08/20 04:54:55;;;;;;;11.75;7.68;;;19.10;89.10;;;;;;5029348;28;20397;-66
2021/08/20 04:57:21;;;;;;;10.85;6.75;;;19.20;89.70;;;;;;5038749;28;20833;-67
2021/08/20 04:59:46;;;;;;;12.70;6.25;;;19.20;89.50;;;;;;5035661;28;20029;-66
2021/08/20 05:02:12;;;;;;;11.63;6.03;;;19.20;89.10;;;;;;5032216;28;20087;-66
2021/08/20 05:04:38;;;;;;;9.75;5.30;;;19.20;89.00;;;;;;5032364;28;20421;-66
2021/08/20 05:07:04;;;;;;;12.70;5.85;;;19.20;89.00;;;;;;5034835;28;20034;-66
2021/08/20 05:09:32;;;;;;;9.40;5.13;;;19.20;89.30;;;;;;5033781;28;20026;-66
2021/08/20 05:12:00;;;;;;;11.10;5.63;;;19.20;89.20;;;;;;5034387;28;20033;-67
2021/08/20 05:14:26;;;;;;;12.07;6.75;;;19.20;89.00;;;;;;5039606;28;20124;-67
2021/08/20 05:16:51;;;;;;;11.10;6.47;;;19.20;87.80;;;;;;5028392;28;20379;-67
2021/08/20 05:19:16;;;;;;;11.65;7.03;;;19.20;88.50;;;;;;5033847;28;20025;-64
2021/08/20 05:21:42;;;;;;;12.82;7.43;;;19.20;88.30;;;;;;5026655;28;20418;-67
2021/08/20 05:24:08;;;;;;;15.38;7.43;;;19.20;87.70;;;;;;5024340;28;20033;-66
2021/08/20 05:26:33;;;;;;;14.43;7.88;;;19.20;87.80;;;;;;5024598;28;20037;-68
2021/08/20 05:28:59;;;;;;;13.23;7.18;;;19.20;87.60;;;;;;5023847;28;20079;-67
2021/08/20 05:31:25;;;;;;;12.40;6.78;;;19.30;87.80;;;;;;5024548;28;20395;-69
2021/08/20 05:33:50;;;;;;;11.20;6.60;;;19.30;87.60;;;;;;5023502;28;20061;-66
2021/08/20 05:36:16;;;;;;;10.60;6.30;;;19.40;87.20;;;;;;5023754;28;20033;-66
2021/08/20 05:38:41;;;;;;;14.82;7.20;;;19.40;87.00;;;;;;5023459;28;20026;-66
2021/08/20 05:41:07;;;;;;;15.07;9.90;;;19.40;85.80;;;;;;5024865;28;20025;-67
2021/08/20 05:43:33;;;;;;;19.77;10.85;;;19.50;85.00;;;;;;5024433;28;20021;-66
2021/08/20 05:45:59;;;;;;;17.92;10.90;;;19.40;84.00;;;;;;5023794;28;20022;-67
2021/08/20 05:48:24;;;;;;;16.95;11.52;;;19.40;83.60;;;;;;5023681;28;20049;-67
2021/08/20 05:50:50;;;;;;;15.90;11.52;;;19.50;83.40;;;;;;5023600;28;20025;-66
2021/08/20 05:53:15;;;;;;;15.63;11.00;;;19.40;83.20;;;;;;5024414;28;20329;-67
2021/08/20 05:55:41;;;;;;;18.52;12.35;;;19.50;83.00;;;;;;5027462;28;20128;-66
2021/08/20 05:58:07;;;;;;;16.33;11.82;;;19.50;82.90;;;;;;5026027;28;20422;-67
2021/08/20 06:00:33;;;;;;;16.67;11.85;;;19.60;82.50;;;;;;5027687;28;20264;-67
2021/08/20 06:02:59;;;;;;;17.20;11.52;;;19.60;82.50;;;;;;5026878;28;20264;-66
2021/08/20 06:05:24;;;;;;;17.33;12.63;;;19.60;82.10;;;;;;5028256;28;20029;-66
2021/08/20 06:07:50;;;;;;;21.30;13.30;;;19.60;81.60;;;;;;5027989;28;20041;-67
2021/08/20 06:10:16;;;;;;;19.60;12.48;;;19.70;81.50;;;;;;5027368;28;20040;-66
2021/08/20 06:12:42;;;;;;;18.48;12.32;;;19.70;81.10;;;;;;5028098;28;20047;-66
2021/08/20 06:15:08;;;;;;;18.35;11.88;;;19.80;80.90;;;;;;5027853;28;20479;-66
2021/08/20 06:17:34;;;;;;;15.90;11.88;;;19.90;80.50;;;;;;5028014;28;20021;-66
2021/08/20 06:19:59;;;;;;;16.88;11.43;;;19.90;80.30;;;;;;5027334;28;20411;-66
2021/08/20 06:22:25;;;;;;;16.23;11.50;;;20.00;79.90;;;;;;5027646;28;20017;-67
2021/08/20 06:24:50;;;;;;;15.50;11.07;;;20.10;79.70;;;;;;5027558;28;20535;-66
2021/08/20 06:27:16;;;;;;;15.65;11.23;;;20.20;79.50;;;;;;5027730;28;20410;-67
2021/08/20 06:29:42;;;;;;;17.15;11.60;;;20.20;79.20;;;;;;5025952;28;20061;-66
2021/08/20 06:32:07;;;;;;;17.58;11.43;;;20.30;78.90;;;;;;5027437;28;20108;-66
2021/08/20 06:34:33;;;;;;;18.20;11.98;;;20.30;78.70;;;;;;5026020;28;20208;-66
2021/08/20 06:36:59;;;;;;;15.80;10.85;;;20.40;78.50;;;;;;5025750;28;20078;-66
2021/08/20 06:39:25;;;;;;;16.42;11.20;;;20.40;78.20;;;;;;5027233;28;20025;-68
2021/08/20 06:41:50;;;;;;;16.67;11.30;;;20.50;78.00;;;;;;5026970;28;20402;-67
2021/08/20 06:44:16;;;;;;;15.48;11.30;;;20.50;77.60;;;;;;5025946;28;20061;-66
2021/08/20 06:46:41;;;;;;;17.70;10.95;;;20.60;77.40;;;;;;5025885;28;20431;-67
2021/08/20 06:49:08;;;;;;;16.27;11.68;;;20.60;77.10;;;;;;5027370;28;20026;-66
2021/08/20 06:51:34;;;;;;;15.15;10.60;;;20.70;76.90;;;;;;5026779;28;20030;-66
2021/08/20 06:54:00;;;;;;;15.73;10.15;;;20.70;76.70;;;;;;5027800;28;20030;-67
2021/08/20 06:56:25;;;;;;;15.82;10.80;;;20.70;76.50;;;;;;5025507;28;20026;-67
2021/08/20 06:58:51;;;;;;;13.85;9.98;;;20.80;76.30;;;;;;5027205;28;20021;-67
2021/08/20 07:01:16;;;;;;;14.93;10.25;;;20.80;75.90;;;;;;5026798;28;20103;-67
2021/08/20 07:03:42;;;;;;;14.98;10.05;;;20.90;75.70;;;;;;5025844;28;20113;-67
2021/08/20 07:06:08;;;;;;;18.92;11.05;;;20.70;75.80;;;;;;5025274;28;20079;-67
2021/08/20 07:08:33;;;;;;;16.23;11.07;;;20.60;76.80;;;;;;5026879;28;20033;-67
2021/08/20 07:10:59;;;;;;;18.60;11.75;;;20.50;76.60;;;;;;5025074;28;20926;-67
2021/08/20 07:13:24;;;;;;;18.23;11.57;;;20.50;76.50;;;;;;5025636;28;20033;-67
2021/08/20 07:15:50;;;;;;;16.33;10.65;;;20.50;76.30;;;;;;5025698;28;20030;-67
2021/08/20 07:18:16;;;;;;;16.95;10.88;;;20.60;76.20;;;;;;5026659;28;20021;-68
2021/08/20 07:20:41;;;;;;;16.35;10.77;;;20.70;75.70;;;;;;5026354;28;20032;-67
2021/08/20 07:23:07;;;;;;;15.32;10.57;;;20.70;75.20;;;;;;5026482;28;20021;-67
2021/08/20 07:25:33;;;;;;;18.70;11.63;;;20.70;75.50;;;;;;5037348;28;20028;-67
2021/08/20 07:27:59;;;;;;;18.42;11.25;;;20.70;75.60;;;;;;5044802;28;20063;-67
2021/08/20 07:30:24;;;;;;;17.60;11.60;;;20.70;75.30;;;;;;5046172;28;20029;-68
2021/08/20 07:32:50;;;;;;;17.20;11.85;;;20.70;75.40;;;;;;5046066;28;20033;-67
2021/08/20 07:35:16;;;;;;;16.10;11.18;;;20.60;75.40;;;;;;5046312;28;20032;-67
2021/08/20 07:37:42;;;;;;;18.35;11.60;;;20.50;75.70;;;;;;5046142;28;20120;-67
2021/08/20 07:40:08;;;;;;;18.80;11.85;;;20.60;75.70;;;;;;5046025;28;20029;-67
2021/08/20 07:42:33;;;;;;;18.65;12.05;;;20.60;75.80;;;;;;5046002;28;20491;-68
2021/08/20 07:45:00;;;;;;;18.60;11.00;;;20.60;75.80;;;;;;5046708;28;20104;-67
2021/08/20 07:47:25;;;;;;;17.45;11.88;;;20.60;75.40;;;;;;5045936;28;20047;-67
2021/08/20 07:49:51;;;;;;;19.35;12.30;;;20.60;75.30;;;;;;5045846;28;20103;-67
2021/08/20 07:52:16;;;;;;;18.75;12.30;;;20.70;75.20;;;;;;5045669;28;20427;-67
2021/08/20 07:54:42;;;;;;;18.55;11.93;;;20.70;75.10;;;;;;5045775;28;20031;-67
2021/08/20 07:57:08;;;;;;;16.65;11.60;;;20.60;75.00;;;;;;5043099;28;20029;-66
2021/08/20 07:59:34;;;;;;;17.30;11.20;;;20.80;74.80;;;;;;5025425;28;20043;-67
2021/08/20 08:01:59;;;;;;;17.15;11.77;;;21.00;74.40;;;;;;5023740;28;20017;-68
2021/08/20 08:04:25;;;;;;;15.25;10.90;;;20.90;74.20;;;;;;5026284;28;20026;-67
2021/08/20 08:06:50;;;;;;;16.23;10.45;;;21.00;74.30;;;;;;5045335;28;20102;-67
2021/08/20 08:09:16;;;;;;;16.23;11.05;;;21.10;73.90;;;;;;5025524;28;20026;-68
2021/08/20 08:11:41;;;;;;;16.67;10.73;;;21.20;73.70;;;;;;5024407;28;20041;-67
2021/08/20 08:14:07;;;;;;;16.13;11.20;;;21.30;73.30;;;;;;5024485;28;20029;-66
2021/08/20 08:16:35;;;;;;;14.60;10.25;;;21.20;73.20;;;;;;5026279;28;20036;-67
2021/08/20 08:19:01;;;;;;;15.57;11.10;;;21.30;73.10;;;;;;5039452;28;20382;-66
2021/08/20 08:21:27;;;;;;;14.68;9.93;;;21.40;72.70;;;;;;5022952;28;20053;-68
2021/08/20 08:23:53;;;;;;;19.15;9.43;;;21.40;72.70;;;;;;5026693;28;20059;-68
2021/08/20 08:26:18;;;;;;;13.90;9.45;;;21.40;73.00;;;;;;5040977;28;20104;-66
2021/08/20 08:28:44;;;;;;;12.07;8.40;;;21.30;73.20;;;;;;5045438;28;20482;-66
2021/08/20 08:31:09;;;;;;;11.30;7.68;;;21.30;73.20;;;;;;5044058;28;20021;-66
2021/08/20 08:33:35;;;;;;;12.68;8.48;;;21.40;73.10;;;;;;5044003;28;20036;-67
2021/08/20 08:36:01;;;;;;;13.10;7.97;;;21.40;72.80;;;;;;5043960;28;20039;-67
2021/08/20 08:38:26;;;;;;;11.07;7.22;;;21.60;72.20;;;;;;5043487;28;20025;-67
2021/08/20 08:40:52;;;;;;;10.45;7.20;;;21.70;71.80;;;;;;5043968;28;20064;-67
2021/08/20 08:43:17;;;;;;;13.20;7.03;;;21.60;71.70;;;;;;5037100;28;20091;-68
2021/08/20 08:45:43;;;;;;;10.15;6.63;;;21.60;71.70;;;;;;5026022;28;20522;-66
2021/08/20 08:48:12;;;;;;;9.90;6.30;;;21.80;71.60;;;;;;5025020;28;20441;-67
2021/08/20 08:50:38;;;;;;;10.27;6.97;;;21.80;71.20;;;;;;5040726;28;20044;-68
2021/08/20 08:53:04;;;;;;;11.55;6.20;;;21.80;71.40;;;;;;5043202;28;20059;-67
2021/08/20 08:55:30;;;;;;;10.32;6.03;;;21.80;71.10;;;;;;5042519;28;20060;-68
2021/08/20 08:57:56;;;;;;;9.77;6.10;;;21.80;71.00;;;;;;5043034;28;20441;-68
2021/08/20 09:00:34;;;;;;;10.10;5.70;;;21.90;70.80;;;;;;5043237;28;20083;-68
2021/08/20 09:03:00;;;;;;;10.88;5.72;;;22.00;70.60;;;;;;5041351;28;20021;-68
2021/08/20 09:05:39;;;;;;;11.35;5.70;;;22.10;70.10;;;;;;5034206;28;20047;-68
2021/08/20 09:08:11;;;;;;;10.32;5.97;;;22.10;70.10;;;;;;5042229;28;20033;-68
2021/08/20 09:10:37;;;;;;;8.20;5.53;;;22.00;70.10;;;;;;5035767;28;20055;-69
2021/08/20 09:13:03;;;;;;;10.10;5.68;;;21.90;70.40;;;;;;5027194;28;20491;-66
2021/08/20 09:15:31;;;;;;;8.82;5.70;;;21.90;70.50;;;;;;5022898;28;20035;-67
2021/08/20 09:17:59;;;;;;;8.68;5.50;;;21.90;70.40;;;;;;5043999;28;20032;-69
2021/08/20 09:20:26;;;;;;;8.57;5.18;;;21.90;70.30;;;;;;5042959;28;20025;-65
2021/08/20 09:22:53;;;;;;;9.68;5.28;;;21.90;70.40;;;;;;5042861;28;20048;-66
2021/08/20 09:25:46;;;;;;;7.72;4.85;;;21.90;70.60;;;;;;5034607;28;20135;-65
2021/08/20 09:28:17;;;;;;;8.18;5.00;;;21.80;70.60;;;;;;5024866;28;20033;-67
2021/08/20 09:31:10;;;;;;;8.07;5.03;;;21.90;70.80;;;;;;5034888;28;20074;-66
2021/08/20 09:33:46;;;;;;;8.27;4.93;;;22.00;70.30;;;;;;5042349;28;20065;-67
2021/08/20 09:36:14;;;;;;;7.25;4.30;;;22.10;69.80;;;;;;5046115;28;20079;-68
2021/08/20 09:38:42;;;;;;;7.75;4.65;;;22.20;69.70;;;;;;5047287;28;20440;-66
2021/08/20 09:41:12;;;;;;;7.97;4.60;;;22.20;69.50;;;;;;5047997;28;20360;-66
2021/08/20 09:43:40;;;;;;;8.32;5.05;;;22.20;69.50;;;;;;5047763;28;20542;-67
2021/08/20 09:46:07;;;;;;;8.73;4.70;;;22.10;69.50;;;;;;5048245;28;20051;-66
2021/08/20 09:48:43;;;;;;;6.70;4.25;;;22.10;69.70;;;;;;5048040;28;20028;-66
2021/08/20 09:51:09;;;;;;;7.57;4.88;;;22.00;69.80;;;;;;5046319;28;20115;-66
2021/08/20 09:53:35;;;;;;;7.30;4.38;;;22.00;70.40;;;;;;5046667;28;20039;-67
2021/08/20 09:56:07;;;;;;;7.57;4.55;;;22.00;70.00;;;;;;5047685;28;20028;-66
2021/08/20 09:58:33;;;;;;;;;;;22.00;70.20;;;;;;5046989;28;20112;-67
2021/08/20 10:01:04;;;;;;;7.13;4.05;;;21.90;70.20;;;;;;5046671;28;20306;-66
2021/08/20 10:03:32;;;;;;;7.47;4.22;;;21.90;70.20;;;;;;5047575;28;20032;-68
2021/08/20 10:06:00;;;;;;;9.13;4.35;;;21.90;70.30;;;;;;5046577;28;20033;-66
2021/08/20 10:08:27;;;;;;;7.25;4.30;;;21.90;70.50;;;;;;5047658;28;20028;-65
2021/08/20 10:10:54;;;;;;;7.88;4.30;;;21.90;70.40;;;;;;5046121;28;20297;-66
2021/08/20 10:13:22;;;;;;;7.00;4.28;;;21.90;70.50;;;;;;5047564;28;20498;-67
2021/08/20 10:15:48;;;;;;;8.25;4.53;;;21.90;70.50;;;;;;5047374;28;20037;-65
2021/08/20 10:18:15;;;;;;;7.80;4.43;;;21.80;70.60;;;;;;5047563;28;20079;-66
2021/08/20 10:20:42;;;;;;;6.75;4.20;;;21.80;70.50;;;;;;5045756;28;20027;-66
2021/08/20 10:23:11;;;;;;;7.57;4.40;;;21.80;70.70;;;;;;5047808;28;20445;-68
2021/08/20 10:25:38;;;;;;;7.65;4.13;;;21.80;70.70;;;;;;5034647;28;20069;-65
2021/08/20 10:28:05;;;;;;;6.75;3.92;;;21.80;70.80;;;;;;5026108;28;20418;-67
2021/08/20 10:30:32;;;;;;;7.47;4.25;;;21.80;70.90;;;;;;5027103;28;20282;-68
2021/08/20 10:33:03;;;;;;;7.20;3.75;;;21.80;70.80;;;;;;5025940;28;20037;-66
2021/08/20 10:35:54;;;;;;;8.40;4.35;;;21.80;70.90;;;;;;5027458;28;20406;-66
2021/08/20 10:38:30;;;;;;;7.22;4.20;;;21.80;71.00;;;;;;5025765;28;20033;-67
2021/08/20 10:41:06;;;;;;;6.75;4.20;;;21.80;71.10;;;;;;5026785;28;20424;-67
2021/08/20 10:43:47;;;;;;;9.20;4.30;;;21.80;71.10;;;;;;5026306;28;20026;-67
2021/08/20 10:46:31;;;;;;;7.22;3.92;;;21.80;71.20;;;;;;5026007;28;20039;-67
2021/08/20 10:49:20;;;;;;;7.53;4.20;;;21.70;71.30;;;;;;5026011;28;20441;-65
2021/08/20 10:51:56;;;;;;;6.47;3.95;;;21.70;71.30;;;;;;5026691;28;20021;-66
2021/08/20 10:54:31;;;;;;;6.78;3.90;;;21.70;71.50;;;;;;5027281;28;20034;-66
2021/08/20 10:56:57;;;;;;;7.60;3.88;;;21.70;71.50;;;;;;5026924;28;20037;-66
2021/08/20 10:59:38;;;;;;;8.25;4.38;;;21.70;71.50;;;;;;5027247;28;20025;-67
2021/08/20 11:02:19;;;;;;;6.60;3.55;;;21.70;71.50;;;;;;5026709;28;20029;-68
2021/08/20 11:05:01;;;;;;;7.93;4.50;;;21.70;71.60;;;;;;5025756;28;20053;-68
2021/08/20 11:07:38;;;;;;;8.38;4.18;;;21.70;71.60;;;;;;5026661;28;20056;-68
2021/08/20 11:10:10;;;;;;;8.48;4.40;;;21.70;71.70;;;;;;5026439;28;20044;-67
2021/08/20 11:12:38;;;;;;;;;;;21.70;71.90;;;;;;5025890;28;20064;-69
2021/08/20 11:15:22;;;;;;;8.95;4.40;;;21.70;71.60;;;;;;5025531;28;19947;-66
2021/08/20 11:18:01;;;;;;;7.25;4.50;;;21.70;71.80;;;;;;5026506;28;20022;-67
2021/08/20 11:20:35;;;;;;;10.90;4.90;;;21.70;71.80;;;;;;5024764;28;20026;-68
2021/08/20 11:23:11;;;;;;;9.68;4.50;;;21.60;71.80;;;;;;5024903;28;20041;-67
2021/08/20 11:25:44;;;;;;;8.70;3.97;;;21.60;72.10;;;;;;5031129;28;20086;-66
2021/08/20 11:28:32;;;;;;;8.32;4.25;;;21.70;72.40;;;;;;5034055;28;20105;-65
2021/08/20 11:31:08;;;;;;;7.80;4.55;;;21.70;72.30;;;;;;5048020;28;20032;-66
2021/08/20 11:33:37;;;;;;;10.93;4.60;;;21.70;72.20;;;;;;5028962;28;20088;-66
2021/08/20 11:36:13;;;;;;;8.23;4.88;;;21.70;72.10;;;;;;5029491;28;20021;-66
2021/08/20 11:38:44;;;;;;;8.25;4.88;;;21.70;72.10;;;;;;5042802;28;20028;-66
2021/08/20 11:41:21;;;;;;;10.10;4.88;;;21.70;72.20;;;;;;5033651;28;20029;-66
2021/08/20 11:43:58;;;;;;;8.70;4.65;;;21.70;72.40;;;;;;5037765;28;20078;-66
2021/08/20 11:46:26;;;;;;;8.85;4.60;;;21.70;72.20;;;;;;5033305;28;20139;-67
2021/08/20 11:48:54;;;;;;;8.48;4.35;;;21.70;72.10;;;;;;5038325;28;20394;-66
2021/08/20 11:51:28;;;;;;;7.35;3.80;;;21.80;72.20;;;;;;5029919;28;20036;-66
2021/08/20 11:53:58;;;;;;;10.85;5.05;;;21.80;72.20;;;;;;5030887;28;20021;-67
2021/08/20 11:56:24;;;;;;;10.77;4.57;;;21.80;72.30;;;;;;5037727;28;20033;-65
2021/08/20 11:58:50;;;;;;;9.48;4.45;;;21.70;72.60;;;;;;5027494;28;20025;-66
2021/08/20 12:01:27;;;;;;;10.13;4.88;;;21.70;72.50;;;;;;5035013;28;20025;-66
2021/08/20 12:03:58;;;;;;;9.75;4.53;;;21.70;72.60;;;;;;5036734;28;20028;-68
2021/08/20 12:06:24;;;;;;;10.43;4.93;;;21.70;72.70;;;;;;5028837;28;20034;-66
2021/08/20 12:08:55;;;;;;;10.95;4.90;;;21.70;72.70;;;;;;5061896;28;20029;-67
2021/08/20 12:11:22;;;;;;;8.82;4.60;;;21.70;72.80;;;;;;5039509;28;20041;-66
2021/08/20 12:13:51;;;;;;;12.10;4.60;;;21.60;72.90;;;;;;5026258;28;20026;-65
2021/08/20 12:16:43;;;;;;;11.60;4.82;;;21.60;72.90;;;;;;5031078;28;20037;-65
2021/08/20 12:19:28;;;;;;;8.88;4.40;;;21.70;72.90;;;;;;5044286;28;20501;-67
2021/08/20 12:22:05;;;;;;;8.18;3.97;;;21.70;72.90;;;;;;5043723;28;20040;-67
2021/08/20 12:24:35;;;;;;;7.72;4.20;;;21.70;72.80;;;;;;5040652;28;20414;-66
2021/08/20 12:27:23;;;;;;;10.07;4.05;;;21.60;72.90;;;;;;5025488;28;20026;-65
2021/08/20 12:29:58;;;;;;;9.90;4.85;;;21.70;73.00;;;;;;5041694;28;20037;-67
2021/08/20 12:32:28;;;;;;;9.80;4.55;;;21.60;73.00;;;;;;5043443;28;20021;-69
2021/08/20 12:35:05;;;;;;;9.20;3.93;;;21.60;73.10;;;;;;5041681;28;20151;-67
2021/08/20 12:37:32;;;;;;;9.18;4.07;;;21.60;73.30;;;;;;5044960;28;20709;-65
2021/08/20 12:40:08;;;;;;;9.40;4.28;;;21.60;73.10;;;;;;5043106;28;20029;-66
2021/08/20 12:42:43;;;;;;;10.27;4.22;;;21.60;73.10;;;;;;5036001;28;20035;-65